Latest Weather Observations for Archerfield

IDQ60801

Issued at 1:02 pm EST Tuesday 3 March 2015 (issued every 30 minutes, with the page automatically refreshed every 10 minutes)

About weather observations | Map of weather stations | Latest weather observations for QLD | Other Formats
Station Details ID: 040211 Name: ARCHERFIELD AIRPORT Lat: -27.57 Lon: 153.01 Height: 12.5 m
Data from the previous 72 hours. | See also: Recent months at Archerfield
Date/Time
EST
Temp
°C
App
Temp
°C
Dew
Point
Rel
Hum
%
Delta-T
°C
Wind Press
QNH
hPa
Press
MSL
hPa
Rain
since 9 am
mm
Dir
 
Spd
km/h
Gust
km/h
Spd
kts
Gust
kts
03/01:00pm 29.9 29.3 16.7 45 8.3 ESE 15 22 8 12 1014.0 1013.9 0.2
03/12:30pm 29.6 29.7 17.4 47 7.7 ENE 13 20 7 11 1014.4 1014.3 0.2
03/12:00pm 28.8 28.8 17.3 49 7.2 ESE 13 22 7 12 1014.7 1014.6 0.2
03/11:30am 28.9 28.2 16.5 47 7.7 ESE 15 22 8 12 1014.9 1014.8 0.2
03/11:00am 28.6 28.9 17.8 52 6.9 SE 13 19 7 10 1015.3 1015.2 0.2
03/10:30am 27.9 28.3 18.9 58 5.8 SSE 15 19 8 10 1015.9 1015.8 0.2
03/10:00am 28.3 29.2 19.2 57 5.9 SSE 13 17 7 9 1016.0 1015.9 0.2
03/09:30am 27.1 28.2 18.9 61 5.3 E 11 17 6 9 1016.0 1015.9 0.0
03/09:00am 26.9 27.8 19.3 63 4.9 ESE 13 20 7 11 1016.0 1015.9 7.0
03/08:30am 25.8 27.4 19.9 70 3.8 SSE 11 19 6 10 1015.9 1015.8 7.0
03/08:00am 24.5 26.3 19.6 74 3.1 S 9 13 5 7 1015.7 1015.6 7.0
03/07:30am 23.3 25.1 18.8 76 2.8 SSW 7 13 4 7 1015.3 1015.2 7.0
03/07:00am 22.4 24.5 19.4 83 1.9 SW 7 9 4 5 1015.3 1015.2 7.0
03/06:30am 20.9 24.3 19.4 91 0.9 CALM 0 0 0 0 1015.2 1015.1 7.0
03/06:00am 19.4 22.2 17.9 91 0.9 CALM 0 0 0 0 1014.9 1014.8 7.0
03/05:30am 20.1 23.0 18.2 89 1.2 CALM 0 9 0 5 1014.6 1014.5 7.0
03/05:00am 19.7 22.5 18.0 90 1.0 CALM 0 0 0 0 1014.3 1014.2 7.0
03/04:30am 20.7 22.1 18.6 88 1.3 S 9 11 5 6 1014.2 1014.1 7.0
03/04:00am 20.6 22.0 18.7 89 1.2 S 9 11 5 6 1014.0 1013.9 7.0
03/03:30am 20.9 22.0 18.8 88 1.3 S 11 13 6 7 1014.0 1013.9 7.0
03/03:00am 21.1 22.6 18.9 87 1.4 S 9 11 5 6 1013.7 1013.6 7.0
03/02:30am 21.0 22.8 18.8 87 1.4 SSW 7 9 4 5 1014.0 1013.9 7.0
03/02:00am 21.3 22.8 18.9 86 1.5 SSW 9 13 5 7 1014.2 1014.1 7.0
03/01:30am 21.7 24.9 18.9 84 1.8 CALM 0 0 0 0 1014.4 1014.3 7.0
03/01:00am 21.6 23.5 18.6 83 1.9 SSW 6 7 3 4 1014.7 1014.6 7.0
03/12:30am 22.2 24.0 18.8 81 2.1 SSW 7 9 4 5 1015.0 1014.9 7.0
03/12:00am 22.3 24.5 19.3 83 1.9 SW 6 7 3 4 1015.2 1015.1 7.0
 
Date/Time
EST
Temp
°C
App
Temp
°C
Dew
Point
Rel
Hum
%
Delta-T
°C
Wind Press
QNH
hPa
Press
MSL
hPa
Rain
since 9 am
mm
Dir
 
Spd
km/h
Gust
km/h
Spd
kts
Gust
kts
02/11:30pm 22.4 24.4 19.2 82 2.0 SSW 7 9 4 5 1015.5 1015.4 7.0
02/11:00pm 23.4 25.4 19.1 77 2.7 SSE 7 9 4 5 1015.5 1015.4 7.0
02/10:00pm 24.1 25.0 19.2 74 3.1 SE 13 20 7 11 1015.5 1015.4 7.0
02/09:30pm 24.4 24.8 19.0 72 3.4 SSE 15 20 8 11 1015.4 1015.3 7.0
02/09:00pm 24.9 25.4 19.3 71 3.6 SE 15 20 8 11 1015.2 1015.1 7.0
02/08:30pm 25.1 26.0 19.2 70 3.8 SE 13 19 7 10 1015.1 1015.0 7.0
02/08:00pm 25.1 24.6 19.2 70 3.8 SE 20 28 11 15 1014.7 1014.6 7.0
02/07:30pm 25.1 24.6 19.2 70 3.8 ESE 20 28 11 15 1014.3 1014.2 7.0
02/07:00pm 25.6 24.4 19.3 68 4.0 ESE 24 37 13 20 1013.6 1013.5 7.0
02/06:30pm 25.5 25.0 19.9 71 3.6 ESE 22 37 12 20 1013.2 1013.1 7.0
02/06:00pm 26.1 24.4 19.7 68 4.1 ESE 28 37 15 20 1012.8 1012.7 7.0
02/05:30pm 27.1 25.0 19.7 64 4.8 ESE 30 37 16 20 1012.2 1012.1 7.0
02/05:00pm 28.1 26.4 19.9 61 5.4 ESE 28 39 15 21 1011.7 1011.6 7.0
02/04:30pm 28.9 27.5 20.4 60 5.6 E 28 37 15 20 1011.4 1011.3 7.0
02/04:00pm 29.0 27.6 20.4 59 5.7 ESE 28 37 15 20 1011.1 1011.0 7.0
02/03:30pm 29.5 28.7 20.9 60 5.7 ESE 26 43 14 23 1011.1 1011.0 7.0
02/03:00pm 28.4 26.8 20.1 60 5.4 ESE 28 37 15 20 1011.0 1010.9 7.0
02/02:30pm 28.9 30.0 21.9 66 4.7 ESE 19 30 10 16 1011.1 1011.0 7.0
02/02:12pm 27.7 28.8 21.3 68 4.3 SE 17 24 9 13 1011.2 1011.1 7.0
02/02:00pm 25.5 26.9 20.3 73 3.4 NW 13 22 7 12 1011.3 1011.2 7.0
02/01:50pm 25.9 25.4 20.7 73 3.4 SE 24 35 13 19 1011.8 1011.7 3.4
02/01:49pm 26.1 25.3 20.0 69 4.0 SE 24 35 13 19 1011.7 1011.6 2.4
02/01:30pm 31.5 30.9 18.8 46 8.3 SE 20 30 11 16 1011.4 1011.3 0.0
02/01:00pm 31.0 31.9 20.0 52 7.3 S 15 24 8 13 1011.7 1011.6 0.0
02/12:30pm 30.6 31.5 20.8 56 6.5 SE 17 30 9 16 1012.1 1012.0 0.0
02/12:00pm 29.4 30.8 20.3 58 6.0 SE 13 22 7 12 1012.5 1012.4 0.0
02/11:30am 29.1 30.1 21.1 62 5.3 SSE 17 28 9 15 1012.9 1012.8 0.0
02/11:00am 29.0 29.8 21.7 64 4.9 SSE 20 28 11 15 1013.1 1013.0 0.0
02/10:30am 28.4 29.1 21.2 65 4.8 S 19 28 10 15 1013.1 1013.0 0.0
02/10:00am 28.5 30.5 21.5 66 4.7 S 13 19 7 10 1013.2 1013.1 0.0
02/09:30am 28.1 28.9 20.6 63 4.9 S 17 22 9 12 1013.2 1013.1 0.0
02/09:00am 27.3 28.4 20.4 66 4.5 S 15 22 8 12 1013.1 1013.0 0.0
02/08:30am 27.5 29.3 21.1 68 4.2 S 13 20 7 11 1012.7 1012.6 0.0
02/08:00am 26.5 27.4 20.8 71 3.8 S 17 19 9 10 1012.4 1012.3 0.0
02/07:30am 25.6 27.4 21.1 76 3.0 SSW 13 17 7 9 1012.2 1012.1 0.0
02/07:00am 24.5 27.0 21.0 81 2.3 SSW 9 11 5 6 1012.1 1012.0 0.0
02/06:30am 23.6 26.6 21.3 87 1.5 S 7 9 4 5 1012.1 1012.0 0.0
02/06:00am 23.3 25.1 21.2 88 1.4 SSE 13 17 7 9 1011.7 1011.6 0.0
02/05:30am 23.0 25.1 20.9 88 1.4 S 11 15 6 8 1011.3 1011.2 0.0
02/05:00am 23.0 24.3 20.9 88 1.4 S 15 17 8 9 1011.1 1011.0 0.0
02/04:30am 22.8 24.5 20.9 89 1.2 S 13 19 7 10 1010.7 1010.6 0.0
02/04:00am 22.7 25.1 20.8 89 1.2 SSE 9 11 5 6 1010.0 1009.9 0.0
02/03:30am 22.8 24.9 20.9 89 1.2 SSE 11 15 6 8 1009.9 1009.8 0.0
02/03:00am 22.9 25.2 20.6 87 1.5 SSE 9 9 5 5 1009.7 1009.6 0.0
02/02:30am 23.2 25.6 20.9 87 1.5 S 9 11 5 6 1009.8 1009.7 0.0
02/02:00am 23.8 28.1 21.1 85 1.8 CALM 0 0 0 0 1009.6 1009.5 0.0
02/01:30am 23.7 27.7 20.6 83 2.0 CALM 0 0 0 0 1009.7 1009.6 0.0
02/01:00am 23.9 27.8 20.4 81 2.3 CALM 0 6 0 3 1010.0 1009.9 0.0
02/12:30am 24.6 27.0 20.9 80 2.4 E 9 11 5 6 1010.2 1010.1 0.0
02/12:00am 24.3 26.6 20.6 80 2.4 ENE 9 11 5 6 1010.4 1010.3 0.0
 
Date/Time
EST
Temp
°C
App
Temp
°C
Dew
Point
Rel
Hum
%
Delta-T
°C
Wind Press
QNH
hPa
Press
MSL
hPa
Rain
since 9 am
mm
Dir
 
Spd
km/h
Gust
km/h
Spd
kts
Gust
kts
01/11:30pm 24.7 27.0 20.6 78 2.7 E 9 11 5 6 1010.4 1010.3 0.0
01/11:00pm 24.7 27.0 20.6 78 2.7 N 9 13 5 7 1010.0 1009.9 0.0
01/10:30pm 25.0 26.6 20.7 77 2.8 N 13 19 7 10 1010.0 1009.9 0.0
01/10:00pm 25.4 26.2 20.6 75 3.1 NNW 17 24 9 13 1009.9 1009.8 0.0
01/09:30pm 25.2 26.9 20.9 77 2.8 NNE 13 17 7 9 1010.0 1009.9 0.0
01/09:00pm 25.5 26.7 20.7 75 3.2 NNE 15 20 8 11 1010.2 1010.1 0.0
01/08:30pm 25.5 26.3 20.7 75 3.1 NNE 17 22 9 12 1009.8 1009.7 0.0
01/08:00pm 25.5 25.8 20.7 75 3.2 NNE 20 26 11 14 1009.3 1009.2 0.0
01/07:30pm 25.7 26.0 20.7 74 3.3 NNE 20 28 11 15 1009.3 1009.2 0.0
01/07:00pm 25.8 26.3 20.8 74 3.3 N 19 26 10 14 1008.8 1008.7 0.0
01/06:30pm 26.0 25.6 21.0 74 3.3 NNE 24 30 13 16 1008.1 1008.0 0.0
01/06:00pm 26.5 27.1 21.3 73 3.5 NNE 20 30 11 16 1007.9 1007.8 0.0
01/05:30pm 27.5 28.1 21.3 69 4.1 NNE 20 26 11 14 1007.9 1007.8 0.0
01/05:00pm 28.1 28.6 21.1 65 4.7 NNE 20 28 11 15 1007.6 1007.5 0.0
01/04:30pm 29.1 29.9 21.8 64 4.9 NNE 20 30 11 16 1007.3 1007.2 0.0
01/04:00pm 29.3 29.2 20.7 59 5.7 NNE 22 30 12 16 1007.2 1007.1 0.0
01/03:30pm 29.6 30.2 21.3 61 5.6 NE 20 28 11 15 1007.3 1007.2 0.0
01/03:00pm 30.2 30.5 20.7 56 6.3 NNE 20 30 11 16 1007.6 1007.5 0.0
01/02:30pm 30.1 30.6 21.2 59 6.0 NNE 20 28 11 15 1007.8 1007.7 0.0
01/02:00pm 31.1 33.3 20.4 53 7.1 NNE 9 20 5 11 1008.0 1007.9 0.0
01/01:30pm 31.7 35.0 20.0 50 7.7 E 2 15 1 8 1008.3 1008.2 0.0
01/01:00pm 30.7 32.2 18.8 49 7.7 NNE 9 13 5 7 1008.7 1008.6 0.0
01/12:30pm 30.5 32.6 18.9 50 7.5 NW 6 9 3 5 1009.2 1009.1 0.0
01/12:00pm 29.3 32.7 19.3 55 6.5 CALM 0 6 0 3 1009.5 1009.4 0.0
01/11:30am 28.9 31.5 19.2 55 6.3 W 4 9 2 5 1009.9 1009.8 0.0
01/11:00am 29.4 32.8 21.6 63 5.2 S 6 7 3 4 1010.4 1010.3 0.0
01/10:30am 28.1 30.5 20.9 65 4.8 SW 9 15 5 8 1010.9 1010.8 0.0
01/10:00am 27.6 31.1 20.4 65 4.7 NW 2 9 1 5 1011.2 1011.1 0.0
01/09:30am 27.8 30.4 20.4 64 4.9 N 7 13 4 7 1011.2 1011.1 0.0
01/09:00am 26.3 29.5 20.4 70 3.9 ENE 4 9 2 5 1011.2 1011.1 0.0
01/08:30am 25.8 29.0 20.6 73 3.4 SE 4 7 2 4 1011.1 1011.0 0.0
01/08:00am 25.0 28.0 21.3 80 2.4 S 7 9 4 5 1011.0 1010.9 0.0
01/07:30am 23.6 25.4 20.3 82 2.1 S 11 15 6 8 1010.9 1010.8 0.0
01/07:00am 22.7 25.0 20.6 88 1.4 S 9 13 5 7 1010.8 1010.7 0.0
01/06:30am 21.9 23.9 20.0 89 1.2 S 9 13 5 7 1010.6 1010.5 0.0
01/06:00am 21.6 24.0 20.1 91 1.0 SSW 7 7 4 4 1010.3 1010.2 0.0
01/05:30am 21.4 23.4 20.0 92 0.9 SSW 9 9 5 5 1010.1 1010.0 0.0
01/05:00am 21.4 24.0 20.0 92 0.9 SSE 6 9 3 5 1009.9 1009.8 0.0
01/04:30am 21.1 24.4 19.9 93 0.8 SSE 2 7 1 4 1009.7 1009.6 0.0
01/04:00am 21.0 23.8 19.6 92 0.9 S 4 9 2 5 1009.6 1009.5 0.0
01/03:58am 21.0 24.1 19.6 92 0.9 S 2 7 1 4 1009.6 1009.5 0.0
01/03:30am 21.0 24.5 19.5 91 1.0 CALM 0 0 0 0 1009.7 1009.6 0.0
01/03:24am 21.1 24.7 19.7 92 0.9 CALM 0 0 0 0 1009.8 1009.7 0.0
01/03:00am 21.1 23.3 19.2 89 1.2 S 6 9 3 5 1009.8 1009.7 0.0
01/02:30am 21.5 23.5 20.0 91 1.0 S 9 13 5 7 1009.9 1009.8 0.0
01/02:00am 22.0 23.7 20.1 89 1.2 SSE 11 13 6 7 1009.9 1009.8 0.0
01/01:30am 22.0 24.1 20.1 89 1.2 S 9 9 5 5 1010.3 1010.2 0.0
01/01:00am 22.6 25.2 20.1 86 1.6 SSE 6 6 3 3 1010.4 1010.3 0.0
01/12:30am 22.5 25.0 19.9 85 1.7 S 6 7 3 4 1010.8 1010.7 0.0
01/12:00am 23.5 26.0 20.2 82 2.1 E 7 9 4 5 1010.8 1010.7 0.0
 
Date/Time
EST
Temp
°C
App
Temp
°C
Dew
Point
Rel
Hum
%
Delta-T
°C
Wind Press
QNH
hPa
Press
MSL
hPa
Rain
since 9 am
mm
Dir
 
Spd
km/h
Gust
km/h
Spd
kts
Gust
kts
28/11:30pm 23.2 25.5 19.8 81 2.2 NE 7 9 4 5 1011.1 1011.0 0.0
28/11:00pm 24.0 26.5 20.3 80 2.4 ENE 7 9 4 5 1011.3 1011.2 0.0
28/10:30pm 23.8 26.7 19.9 79 2.5 ENE 4 9 2 5 1011.5 1011.4 0.0
28/10:00pm 23.7 26.2 19.8 79 2.5 NE 6 7 3 4 1011.6 1011.5 0.0
28/09:30pm 24.4 26.1 20.1 77 2.8 ENE 11 15 6 8 1011.4 1011.3 0.0
28/09:00pm 24.5 26.2 20.2 77 2.8 ENE 11 13 6 7 1011.4 1011.3 0.0
28/08:30pm 24.8 25.8 20.3 76 2.9 ENE 15 19 8 10 1011.2 1011.1 0.0
28/08:00pm 24.8 26.1 20.1 75 3.1 NE 13 17 7 9 1011.0 1010.9 0.0
28/07:30pm 24.7 25.9 19.8 74 3.2 NE 13 17 7 9 1010.6 1010.5 0.0
28/07:00pm 25.1 25.3 20.1 74 3.3 NE 19 22 10 12 1010.1 1010.0 0.0
28/06:30pm 25.4 25.3 20.0 72 3.5 NE 20 28 11 15 1009.7 1009.6 0.0
28/06:00pm 26.0 26.1 20.3 71 3.7 NE 20 26 11 14 1009.6 1009.5 0.0
28/05:30pm 26.4 25.7 20.3 69 4.0 NE 24 30 13 16 1009.2 1009.1 0.0
28/05:00pm 27.1 26.2 19.9 64 4.7 NE 24 30 13 16 1008.9 1008.8 0.0
28/04:30pm 27.2 26.7 20.0 64 4.7 NE 22 30 12 16 1008.8 1008.7 0.0
28/04:00pm 27.4 26.4 19.7 63 5.0 NNE 24 35 13 19 1008.7 1008.6 0.0
28/03:30pm 28.0 27.5 20.0 61 5.2 NNE 22 30 12 16 1008.7 1008.6 0.0
28/03:00pm 28.9 28.6 20.4 60 5.6 NE 22 33 12 18 1008.5 1008.4 0.0
28/02:30pm 28.3 27.8 20.8 63 5.0 NE 24 30 13 16 1008.7 1008.6 0.0
28/02:00pm 29.2 30.0 20.6 59 5.7 NNE 17 24 9 13 1008.8 1008.7 0.0
28/01:30pm 29.0 29.2 20.2 59 5.8 NE 19 26 10 14 1009.3 1009.2 0.0

Other Formats:

Comma delimited format used in spreadsheet applications
http://www.bom.gov.au/fwo/IDQ60801/IDQ60801.94575.axf

JavaScript Object Notation format (JSON) in row-major order
http://www.bom.gov.au/fwo/IDQ60801/IDQ60801.94575.json